Time;durP1;ratioP1;P1;durP2;ratioP2;P2;SDS_P1;SDS_P2;PMS_P1;PMS_P2;Temp;Humidity;BMP_temperature;BMP_pressure;BME280_temperature;BME280_humidity;BME280_pressure;Samples;Min_cycle;Max_cycle;Signal;HPM_P1;HPM_P2
2020/12/28 00:01:37;;;;;;;7.40;2.70;;;2.40;99.90;;;;;;5039563;28;20036;-94
2020/12/28 00:04:03;;;;;;;6.25;2.88;;;2.40;99.90;;;;;;5028994;28;20025;-93
2020/12/28 00:06:29;;;;;;;11.65;2.97;;;2.30;99.90;;;;;;5045884;28;20041;-94
2020/12/28 00:08:55;;;;;;;4.60;2.30;;;2.30;99.90;;;;;;5043783;28;20022;-95
2020/12/28 00:11:21;;;;;;;9.98;2.38;;;2.30;99.90;;;;;;5043617;28;20040;-94
2020/12/28 00:13:47;;;;;;;4.10;2.00;;;2.30;99.90;;;;;;5042225;28;20100;-93
2020/12/28 00:16:16;;;;;;;5.82;2.28;;;2.30;99.90;;;;;;5044598;28;20028;-95
2020/12/28 00:18:43;;;;;;;3.65;2.03;;;2.30;99.90;;;;;;5042487;28;20074;-94
2020/12/28 00:21:09;;;;;;;13.27;4.70;;;2.20;99.90;;;;;;5059235;28;20048;-95
2020/12/28 00:23:35;;;;;;;5.82;2.47;;;2.20;99.90;;;;;;5050041;28;20028;-94
2020/12/28 00:26:03;;;;;;;7.53;2.60;;;2.20;99.90;;;;;;5047322;28;20033;-94
2020/12/28 00:28:29;;;;;;;8.43;2.65;;;2.20;99.90;;;;;;5050034;28;20064;-94
2020/12/28 00:30:55;;;;;;;8.55;3.20;;;2.20;99.90;;;;;;5049345;28;20027;-95
2020/12/28 00:33:21;;;;;;;5.30;3.28;;;2.20;99.90;;;;;;5050332;28;20052;-94
2020/12/28 00:35:48;;;;;;;5.40;2.60;;;2.10;99.90;;;;;;5050273;28;20386;-94
2020/12/28 00:38:13;;;;;;;5.63;1.90;;;2.20;99.90;;;;;;5048559;28;20040;-94
2020/12/28 00:40:41;;;;;;;4.78;2.70;;;2.20;99.90;;;;;;5051767;28;20033;-94
2020/12/28 00:43:06;;;;;;;7.15;2.20;;;2.20;99.90;;;;;;5047025;28;20024;-95
2020/12/28 00:45:35;;;;;;;6.43;2.00;;;2.20;99.90;;;;;;5049452;28;20039;-94
2020/12/28 00:48:01;;;;;;;8.55;2.17;;;2.20;99.90;;;;;;5054276;28;20115;-95
2020/12/28 00:50:27;;;;;;;6.70;2.05;;;2.30;99.90;;;;;;5058860;28;20055;-94
2020/12/28 00:52:53;;;;;;;9.15;2.28;;;2.30;99.90;;;;;;5054845;28;20028;-94
2020/12/28 00:55:22;;;;;;;4.50;2.05;;;2.30;99.90;;;;;;5058249;28;20029;-94
2020/12/28 00:57:49;;;;;;;6.88;2.10;;;2.30;99.90;;;;;;5073547;28;20045;-94
2020/12/28 01:00:17;;;;;;;6.63;1.92;;;2.30;99.90;;;;;;5049301;28;20055;-94
2020/12/28 01:02:42;;;;;;;7.82;2.38;;;2.30;99.90;;;;;;5051822;28;20024;-93
2020/12/28 01:05:11;;;;;;;5.53;2.13;;;2.30;99.90;;;;;;5054467;28;20039;-93
2020/12/28 01:07:36;;;;;;;7.30;2.10;;;2.30;99.90;;;;;;5054268;28;20036;-93
2020/12/28 01:10:03;;;;;;;4.85;1.60;;;2.30;99.90;;;;;;5055747;28;20025;-94
2020/12/28 01:12:31;;;;;;;8.60;1.88;;;2.30;99.90;;;;;;5055772;28;20097;-93
2020/12/28 01:14:57;;;;;;;8.38;2.13;;;2.30;99.90;;;;;;5045172;28;20030;-94
2020/12/28 01:17:23;;;;;;;3.53;1.70;;;2.30;99.90;;;;;;5046631;28;20054;-94
2020/12/28 01:19:49;;;;;;;4.43;1.63;;;2.30;99.90;;;;;;5046438;28;20048;-93
2020/12/28 01:22:14;;;;;;;2.67;1.40;;;2.30;99.90;;;;;;5045960;28;20028;-93
2020/12/28 01:24:41;;;;;;;5.03;1.50;;;2.40;99.90;;;;;;5043438;28;20068;-95
2020/12/28 01:27:07;;;;;;;3.47;1.60;;;2.30;99.90;;;;;;5046140;28;20021;-93
2020/12/28 01:29:33;;;;;;;5.75;1.67;;;2.30;99.90;;;;;;5046620;28;20072;-94
2020/12/28 01:31:58;;;;;;;5.70;1.60;;;2.30;99.90;;;;;;5044494;28;20063;-93
2020/12/28 01:34:24;;;;;;;2.58;1.70;;;2.30;99.90;;;;;;5046748;28;20431;-94
2020/12/28 01:36:50;;;;;;;7.50;1.80;;;2.30;99.90;;;;;;5045451;28;20025;-92
2020/12/28 01:39:16;;;;;;;4.32;2.25;;;2.30;99.90;;;;;;5052517;28;20008;-93
2020/12/28 01:41:42;;;;;;;6.38;1.58;;;2.30;99.90;;;;;;5065750;28;20033;-95
2020/12/28 01:44:09;;;;;;;4.60;1.70;;;2.30;99.90;;;;;;5062909;28;20157;-93
2020/12/28 01:46:34;;;;;;;3.47;1.40;;;2.30;99.90;;;;;;5053066;28;20033;-93
2020/12/28 01:49:00;;;;;;;7.63;1.58;;;2.30;99.90;;;;;;5049859;28;20036;-93
2020/12/28 01:51:27;;;;;;;3.47;1.38;;;2.30;99.90;;;;;;5031550;28;20053;-94
2020/12/28 01:53:53;;;;;;;4.47;1.63;;;2.30;99.90;;;;;;5046774;28;20997;-93
2020/12/28 01:56:21;;;;;;;4.00;1.50;;;2.30;99.90;;;;;;5045305;28;20059;-93
2020/12/28 01:58:49;;;;;;;6.38;1.60;;;2.30;99.90;;;;;;5045030;28;20024;-93
2020/12/28 02:01:17;;;;;;;6.95;1.33;;;2.40;99.90;;;;;;5045022;28;20090;-93
2020/12/28 02:03:43;;;;;;;6.43;3.45;;;2.40;99.90;;;;;;5047124;28;20061;-93
2020/12/28 02:06:09;;;;;;;3.53;1.42;;;2.40;99.90;;;;;;5045654;28;20044;-94
2020/12/28 02:08:34;;;;;;;6.05;1.50;;;2.40;99.90;;;;;;5046087;28;20017;-94
2020/12/28 02:11:00;;;;;;;5.55;1.63;;;2.40;99.90;;;;;;5046272;28;20032;-93
2020/12/28 02:13:26;;;;;;;5.95;1.80;;;2.40;99.90;;;;;;5047178;28;20025;-93
2020/12/28 02:15:52;;;;;;;4.43;1.80;;;2.40;99.90;;;;;;5047211;28;20372;-93
2020/12/28 02:18:20;;;;;;;7.65;1.30;;;2.40;99.90;;;;;;5046409;28;20025;-93
2020/12/28 02:20:46;;;;;;;2.80;1.67;;;2.40;99.90;;;;;;5046773;28;20086;-94
2020/12/28 02:23:12;;;;;;;4.47;1.70;;;2.40;99.90;;;;;;5044956;28;20021;-95
2020/12/28 02:25:38;;;;;;;7.32;1.60;;;2.40;99.90;;;;;;5046324;28;20035;-94
2020/12/28 02:28:04;;;;;;;5.28;1.42;;;2.40;99.90;;;;;;5044565;28;20063;-94
2020/12/28 02:30:35;;;;;;;6.57;2.13;;;2.40;99.90;;;;;;5044988;28;20029;-95
2020/12/28 02:33:00;;;;;;;;;;;2.40;99.90;;;;;;5048413;28;20123;-94
2020/12/28 02:35:28;;;;;;;3.92;2.17;;;2.40;99.90;;;;;;5047334;28;20407;-94
2020/12/28 02:37:54;;;;;;;6.20;2.00;;;2.40;99.90;;;;;;5048614;28;20024;-94
2020/12/28 02:40:20;;;;;;;7.28;2.95;;;2.40;99.90;;;;;;5048304;28;20025;-94
2020/12/28 02:42:45;;;;;;;8.40;3.10;;;2.40;99.90;;;;;;5044596;28;20122;-93
2020/12/28 02:45:11;;;;;;;6.32;2.80;;;2.40;99.90;;;;;;5043381;28;20497;-95
2020/12/28 02:47:37;;;;;;;15.00;4.75;;;2.40;99.90;;;;;;5043959;28;20029;-94
2020/12/28 02:50:03;;;;;;;15.85;5.43;;;2.40;99.90;;;;;;5044486;28;20028;-94
2020/12/28 02:52:28;;;;;;;12.65;4.40;;;2.40;99.90;;;;;;5046312;28;20036;-95
2020/12/28 02:54:54;;;;;;;5.80;2.85;;;2.40;99.90;;;;;;5048097;28;20028;-94
2020/12/28 02:57:20;;;;;;;12.68;4.20;;;2.30;99.90;;;;;;5045370;28;20024;-93
2020/12/28 02:59:45;;;;;;;17.60;4.93;;;2.30;99.90;;;;;;5045478;28;20056;-94
2020/12/28 03:02:11;;;;;;;10.25;4.43;;;2.30;99.90;;;;;;5046054;28;20064;-94
2020/12/28 03:04:37;;;;;;;9.25;3.70;;;2.40;99.90;;;;;;5044196;28;20100;-94
2020/12/28 03:07:02;;;;;;;15.20;5.05;;;2.30;99.90;;;;;;5047516;28;20544;-93
2020/12/28 03:09:28;;;;;;;9.15;3.70;;;2.30;99.90;;;;;;5043392;28;20504;-91
2020/12/28 03:11:54;;;;;;;10.63;3.38;;;2.20;99.90;;;;;;5045432;28;20060;-93
2020/12/28 03:14:19;;;;;;;13.35;4.47;;;2.20;99.90;;;;;;5046169;28;20020;-93
2020/12/28 03:16:45;;;;;;;10.55;3.60;;;2.20;99.90;;;;;;5044234;28;20477;-94
2020/12/28 03:19:11;;;;;;;9.38;3.88;;;2.20;99.90;;;;;;5042070;28;20550;-93
2020/12/28 03:21:39;;;;;;;15.35;4.97;;;2.20;99.90;;;;;;5041344;28;20025;-93
2020/12/28 03:24:05;;;;;;;8.90;3.42;;;2.20;99.90;;;;;;5044799;28;20112;-95
2020/12/28 03:26:31;;;;;;;13.52;3.50;;;2.20;99.90;;;;;;5040743;28;20152;-93
2020/12/28 03:28:58;;;;;;;10.20;3.58;;;2.10;99.90;;;;;;5043582;28;20045;-94
2020/12/28 03:31:28;;;;;;;5.93;3.42;;;2.10;99.90;;;;;;5043277;28;20074;-94
2020/12/28 03:33:54;;;;;;;15.10;3.75;;;2.20;99.90;;;;;;5043256;28;20056;-93
2020/12/28 03:36:19;;;;;;;8.27;3.65;;;2.20;99.90;;;;;;5044372;28;20021;-92
2020/12/28 03:38:45;;;;;;;9.80;3.90;;;2.20;99.90;;;;;;5044582;28;20029;-92
2020/12/28 03:41:13;;;;;;;8.43;3.20;;;2.20;99.90;;;;;;5044552;28;20040;-93
2020/12/28 03:43:38;;;;;;;13.30;3.90;;;2.20;99.90;;;;;;5044770;28;20603;-93
2020/12/28 03:46:04;;;;;;;9.32;3.50;;;2.10;99.90;;;;;;5043070;28;20107;-93
2020/12/28 03:48:30;;;;;;;10.13;3.40;;;2.10;99.90;;;;;;5042856;28;20058;-93
2020/12/28 03:50:56;;;;;;;11.25;3.70;;;2.10;99.90;;;;;;5041083;28;20174;-93
2020/12/28 03:53:22;;;;;;;10.20;4.13;;;2.10;99.90;;;;;;5043203;28;20100;-93
2020/12/28 03:55:47;;;;;;;8.57;3.53;;;2.10;99.90;;;;;;5045212;28;20032;-94
2020/12/28 03:58:13;;;;;;;14.02;4.15;;;2.10;99.90;;;;;;5046600;28;20056;-93
2020/12/28 04:00:39;;;;;;;9.55;4.28;;;2.10;99.90;;;;;;5047747;28;20044;-93
2020/12/28 04:03:05;;;;;;;10.48;4.25;;;2.00;99.90;;;;;;5046532;28;20036;-93
2020/12/28 04:05:31;;;;;;;13.13;4.03;;;2.00;99.90;;;;;;5046718;28;20029;-93
2020/12/28 04:07:56;;;;;;;5.75;3.20;;;2.00;99.90;;;;;;5048359;28;20492;-93
2020/12/28 04:10:22;;;;;;;13.05;4.95;;;2.00;99.90;;;;;;5045521;28;20032;-92
2020/12/28 04:12:48;;;;;;;7.50;3.58;;;2.00;99.90;;;;;;5045283;28;20029;-93
2020/12/28 04:15:13;;;;;;;11.43;4.75;;;2.00;99.90;;;;;;5045761;28;20067;-93
2020/12/28 04:17:39;;;;;;;10.65;5.15;;;2.00;99.90;;;;;;5045444;28;20017;-94
2020/12/28 04:20:05;;;;;;;9.98;5.13;;;2.10;99.90;;;;;;5046906;28;20049;-95
2020/12/28 04:22:31;;;;;;;12.00;5.20;;;2.10;99.90;;;;;;5045489;28;20032;-94
2020/12/28 04:24:56;;;;;;;12.23;5.03;;;2.00;99.90;;;;;;5046925;28;20040;-93
2020/12/28 04:27:22;;;;;;;8.70;4.55;;;2.00;99.90;;;;;;5045851;28;20441;-93
2020/12/28 04:29:52;;;;;;;10.57;5.50;;;2.10;99.90;;;;;;5044152;28;20051;-94
2020/12/28 04:32:19;;;;;;;17.83;5.28;;;2.00;99.90;;;;;;5049041;28;20466;-94
2020/12/28 04:34:44;;;;;;;11.65;5.35;;;2.00;99.90;;;;;;5047968;28;20043;-94
2020/12/28 04:37:10;;;;;;;16.48;6.70;;;2.00;99.90;;;;;;5044874;28;20021;-93
2020/12/28 04:39:36;;;;;;;14.98;5.90;;;2.00;99.90;;;;;;5045432;28;20040;-93
2020/12/28 04:42:02;;;;;;;12.80;6.18;;;2.00;99.90;;;;;;5043868;28;20049;-92
2020/12/28 04:44:28;;;;;;;10.75;5.35;;;2.00;99.90;;;;;;5045673;28;20013;-93
2020/12/28 04:46:54;;;;;;;11.63;5.93;;;2.00;99.90;;;;;;5047478;28;20111;-93
2020/12/28 04:49:22;;;;;;;15.82;5.70;;;2.00;99.90;;;;;;5046174;28;20059;-93
2020/12/28 04:52:04;;;;;;;14.35;6.43;;;1.90;99.90;;;;;;5046764;28;20515;-94
2020/12/28 04:54:30;;;;;;;10.50;5.72;;;1.90;99.90;;;;;;5066490;28;20032;-92
2020/12/28 04:57:16;;;;;;;16.35;6.10;;;1.90;99.90;;;;;;5056674;28;20044;-94
2020/12/28 04:59:45;;;;;;;9.95;5.63;;;1.80;99.90;;;;;;5047155;28;20041;-94
2020/12/28 05:02:17;;;;;;;11.27;6.30;;;1.80;99.90;;;;;;5068936;28;20028;-94
2020/12/28 05:04:43;;;;;;;13.82;6.38;;;1.80;99.90;;;;;;5069165;28;20007;-94
2020/12/28 05:07:31;;;;;;;12.32;6.15;;;1.80;99.90;;;;;;5050849;28;20024;-94
2020/12/28 05:09:56;;;;;;;10.80;5.35;;;1.80;99.90;;;;;;5029069;28;20035;-94
2020/12/28 05:12:22;;;;;;;12.25;6.32;;;1.80;99.90;;;;;;5047126;28;20017;-94
2020/12/28 05:14:48;;;;;;;12.13;6.18;;;1.80;99.90;;;;;;5050160;28;20032;-95
2020/12/28 05:17:16;;;;;;;12.93;6.55;;;1.80;99.90;;;;;;5047286;28;20028;-95
2020/12/28 05:19:45;;;;;;;14.27;7.28;;;1.80;99.90;;;;;;5052042;28;20044;-94
2020/12/28 05:22:25;;;;;;;13.32;6.82;;;1.80;99.90;;;;;;5061487;28;20047;-95
2020/12/28 05:24:53;;;;;;;15.00;7.20;;;1.80;99.90;;;;;;5048201;28;20066;-94
2020/12/28 05:27:28;;;;;;;16.00;7.47;;;1.80;99.90;;;;;;5064794;28;20112;-94
2020/12/28 05:29:56;;;;;;;24.17;8.55;;;1.80;99.90;;;;;;5045142;28;20136;-93
2020/12/28 05:32:23;;;;;;;19.65;8.45;;;1.80;99.90;;;;;;5046976;28;20028;-94
2020/12/28 05:34:55;;;;;;;19.15;7.53;;;1.80;99.90;;;;;;5050743;28;20032;-93
2020/12/28 05:37:23;;;;;;;21.30;9.35;;;1.80;99.90;;;;;;5055358;28;20166;-95
2020/12/28 05:39:52;;;;;;;22.30;9.00;;;1.80;99.90;;;;;;5028297;28;20040;-94
2020/12/28 05:42:18;;;;;;;20.70;9.00;;;1.70;99.90;;;;;;5045382;28;20081;-94
2020/12/28 05:44:59;;;;;;;;;;;;;;;;;;;;;
2020/12/28 05:47:28;;;;;;;19.95;9.10;;;1.80;99.90;;;;;;5058533;28;20508;-93
2020/12/28 05:49:56;;;;;;;23.25;9.18;;;1.80;99.90;;;;;;5044584;28;20037;-94
2020/12/28 05:52:25;;;;;;;20.42;9.20;;;1.80;99.90;;;;;;5058636;28;20107;-95
2020/12/28 05:54:57;;;;;;;27.10;9.80;;;1.80;99.90;;;;;;5029724;28;20040;-95
2020/12/28 05:57:26;;;;;;;18.92;9.27;;;1.80;99.90;;;;;;5044650;28;20029;-94
2020/12/28 05:59:55;;;;;;;21.05;9.68;;;1.70;99.90;;;;;;5045860;28;20036;-95
2020/12/28 06:02:27;;;;;;;22.50;8.98;;;1.80;99.90;;;;;;5051802;28;20017;-94
2020/12/28 06:04:56;;;;;;;19.77;9.10;;;1.80;99.90;;;;;;5043075;28;20102;-95
2020/12/28 06:07:24;;;;;;;22.77;10.82;;;1.80;99.90;;;;;;5050818;28;20028;-94
2020/12/28 06:09:56;;;;;;;18.40;9.10;;;1.80;99.90;;;;;;5045941;28;20032;-94
2020/12/28 06:12:24;;;;;;;20.17;9.00;;;1.80;99.90;;;;;;5048085;28;20056;-94
2020/12/28 06:14:55;;;;;;;18.70;8.43;;;1.80;99.90;;;;;;5046151;28;20025;-95
2020/12/28 06:17:53;;;;;;;17.10;8.90;;;1.80;99.90;;;;;;5045250;28;20024;-94
2020/12/28 06:20:30;;;;;;;20.08;9.43;;;1.80;99.90;;;;;;5014585;28;20044;-94
2020/12/28 06:23:04;;;;;;;28.52;10.05;;;1.80;99.90;;;;;;5044706;28;20096;-94
2020/12/28 06:25:31;;;;;;;20.92;9.27;;;1.80;99.90;;;;;;5046425;28;20033;-93
2020/12/28 06:28:02;;;;;;;24.05;10.20;;;1.80;99.90;;;;;;5045188;28;20029;-93
2020/12/28 06:30:31;;;;;;;24.27;10.23;;;1.80;99.90;;;;;;5059329;28;20123;-94
2020/12/28 06:33:04;;;;;;;21.75;9.88;;;1.80;99.90;;;;;;5043021;28;20025;-93
2020/12/28 06:35:33;;;;;;;19.20;10.20;;;1.80;99.90;;;;;;5044873;28;20032;-94
2020/12/28 06:38:03;;;;;;;18.00;9.40;;;1.80;99.90;;;;;;5044790;28;20462;-93
2020/12/28 06:40:39;;;;;;;21.45;10.18;;;1.70;99.90;;;;;;5046177;28;20024;-93
2020/12/28 06:43:15;;;;;;;19.83;9.63;;;1.80;99.90;;;;;;5057945;28;20028;-95
2020/12/28 06:45:52;;;;;;;27.42;10.45;;;1.80;99.90;;;;;;5048236;28;20055;-94
2020/12/28 06:48:25;;;;;;;21.05;10.98;;;1.80;99.90;;;;;;5044972;28;20054;-92
2020/12/28 06:50:56;;;;;;;19.63;9.85;;;1.80;99.90;;;;;;5041552;28;20025;-94
2020/12/28 06:53:26;;;;;;;24.45;10.90;;;1.80;99.90;;;;;;5041304;28;20025;-94
2020/12/28 06:55:56;;;;;;;26.60;10.98;;;1.70;99.90;;;;;;5027200;28;20448;-93
2020/12/28 06:58:21;;;;;;;20.77;9.95;;;1.70;99.90;;;;;;5048222;28;20029;-92
2020/12/28 07:00:47;;;;;;;23.13;10.30;;;1.70;99.90;;;;;;5043946;28;20039;-93
2020/12/28 07:03:24;;;;;;;29.73;12.32;;;1.70;99.90;;;;;;5025812;28;20029;-94
2020/12/28 07:06:17;;;;;;;24.75;11.45;;;1.60;99.90;;;;;;5041949;28;20041;-92
2020/12/28 07:08:48;;;;;;;24.45;10.48;;;1.60;99.90;;;;;;5041862;28;20089;-92
2020/12/28 07:11:24;;;;;;;21.83;9.80;;;1.60;99.90;;;;;;5026743;28;20017;-93
2020/12/28 07:13:52;;;;;;;24.63;10.43;;;1.60;99.90;;;;;;5026160;28;20029;-92
2020/12/28 07:16:19;;;;;;;24.58;11.13;;;1.50;99.90;;;;;;5044727;28;20024;-93
2020/12/28 07:18:45;;;;;;;27.52;12.45;;;1.60;99.90;;;;;;5043231;28;20036;-92
2020/12/28 07:21:12;;;;;;;22.70;10.70;;;1.60;99.90;;;;;;5025188;28;20044;-93
2020/12/28 07:23:37;;;;;;;23.55;10.48;;;1.60;99.90;;;;;;5040109;28;20040;-93
2020/12/28 07:26:08;;;;;;;26.08;11.10;;;1.60;99.90;;;;;;5041598;28;20037;-92
2020/12/28 07:28:35;;;;;;;36.60;11.93;;;1.60;99.90;;;;;;5038560;28;20045;-94
2020/12/28 07:31:05;;;;;;;30.10;13.35;;;1.50;99.90;;;;;;5042159;28;20082;-94
2020/12/28 07:33:31;;;;;;;33.25;10.63;;;1.50;99.90;;;;;;5046101;28;20032;-94
2020/12/28 07:36:20;;;;;;;25.55;11.05;;;1.50;99.90;;;;;;5047202;28;20115;-94
2020/12/28 07:38:48;;;;;;;22.80;9.93;;;1.50;99.90;;;;;;5044083;28;20032;-94
2020/12/28 07:41:19;;;;;;;30.98;11.85;;;1.50;99.90;;;;;;5042213;28;20063;-93
2020/12/28 07:43:49;;;;;;;;;;;1.50;99.90;;;;;;5043913;28;20027;-93
2020/12/28 07:46:57;;;;;;;27.25;10.43;;;1.60;99.90;;;;;;5046137;28;19912;-92
2020/12/28 07:49:48;;;;;;;28.35;11.30;;;1.50;99.90;;;;;;5047388;28;20036;-93
2020/12/28 07:52:28;;;;;;;29.58;11.35;;;1.50;99.90;;;;;;5047491;28;20028;-95
2020/12/28 07:55:04;;;;;;;37.20;14.93;;;1.50;99.90;;;;;;5046623;28;20032;-95
2020/12/28 07:57:39;;;;;;;28.58;11.25;;;1.50;99.90;;;;;;5045927;28;20259;-94
2020/12/28 08:00:11;;;;;;;29.20;11.82;;;1.50;99.90;;;;;;5048434;28;20020;-93
2020/12/28 08:02:56;;;;;;;24.38;10.90;;;1.40;99.90;;;;;;5044602;28;20025;-92
2020/12/28 08:05:52;;;;;;;27.17;10.27;;;1.40;99.90;;;;;;5049524;28;20056;-92
2020/12/28 08:08:25;;;;;;;24.45;10.45;;;1.40;99.90;;;;;;5046409;28;20140;-93
2020/12/28 08:11:10;;;;;;;24.42;11.18;;;1.40;99.90;;;;;;5046573;28;20041;-94
2020/12/28 08:13:42;;;;;;;26.38;10.05;;;1.40;99.90;;;;;;5073196;28;20037;-92
2020/12/28 08:16:18;;;;;;;30.23;11.45;;;1.40;99.90;;;;;;5043432;28;20025;-94
2020/12/28 08:18:50;;;;;;;28.95;11.23;;;1.40;99.90;;;;;;5042698;28;20043;-96
2020/12/28 08:21:41;;;;;;;27.95;11.18;;;1.40;99.90;;;;;;5059364;28;20028;-95
2020/12/28 08:24:20;;;;;;;34.78;11.23;;;1.40;99.90;;;;;;5051505;28;20048;-92
2020/12/28 08:26:50;;;;;;;26.52;10.98;;;1.40;99.90;;;;;;5047379;28;20025;-94
2020/12/28 08:29:21;;;;;;;26.40;10.30;;;1.50;99.90;;;;;;5033080;28;20048;-94
2020/12/28 08:31:52;;;;;;;25.38;10.38;;;1.40;99.90;;;;;;5047336;28;20033;-91
2020/12/28 08:34:31;;;;;;;24.73;9.85;;;1.40;99.90;;;;;;5032094;28;20036;-95
2020/12/28 08:36:57;;;;;;;25.60;11.05;;;1.40;99.90;;;;;;5046764;28;20028;-94
2020/12/28 08:39:41;;;;;;;35.58;11.65;;;1.40;99.90;;;;;;5029052;28;20124;-94
2020/12/28 08:42:15;;;;;;;34.75;11.32;;;1.40;99.90;;;;;;5044348;28;20031;-94
2020/12/28 08:44:49;;;;;;;27.00;9.57;;;1.50;99.90;;;;;;5063121;28;20025;-95
2020/12/28 08:47:37;;;;;;;24.77;10.55;;;1.50;99.90;;;;;;5017517;28;20055;-93
2020/12/28 08:50:10;;;;;;;30.15;11.52;;;1.50;99.90;;;;;;5063189;28;20080;-93
2020/12/28 08:53:25;;;;;;;28.58;10.90;;;1.50;99.90;;;;;;5048951;28;20478;-94
2020/12/28 08:59:19;;;;;;;21.92;9.82;;;1.50;99.90;;;;;;5014751;28;20029;-94
2020/12/28 09:02:20;;;;;;;25.35;9.85;;;1.60;99.90;;;;;;5005833;28;20056;-95
2020/12/28 09:04:51;;;;;;;23.08;11.00;;;1.80;99.90;;;;;;5023276;28;20021;-95
2020/12/28 09:07:36;;;;;;;;;;;1.70;99.90;;;;;;5014451;28;20037;-95
2020/12/28 09:13:47;;;;;;;27.10;9.75;;;1.80;99.90;;;;;;5013855;28;20036;-94
2020/12/28 09:16:21;;;;;;;24.30;9.88;;;1.70;99.90;;;;;;5013618;28;20490;-94
2020/12/28 09:19:22;;;;;;;22.60;9.45;;;1.60;99.90;;;;;;5016315;28;20098;-94
2020/12/28 09:25:26;;;;;;;20.80;8.30;;;1.60;99.90;;;;;;5019527;28;20116;-94
2020/12/28 09:28:04;;;;;;;20.15;8.35;;;1.60;99.90;;;;;;5026303;28;20137;-94
2020/12/28 09:30:42;;;;;;;19.52;8.93;;;1.50;99.90;;;;;;5001735;28;20057;-93
2020/12/28 09:33:21;;;;;;;22.90;9.13;;;1.50;99.90;;;;;;5000244;28;20097;-93
2020/12/28 09:35:49;;;;;;;20.25;9.55;;;1.50;99.90;;;;;;5025879;28;20055;-94
2020/12/28 09:38:19;;;;;;;23.42;10.05;;;1.50;99.90;;;;;;5042068;28;20045;-94
2020/12/28 09:40:48;;;;;;;20.02;8.07;;;1.50;99.90;;;;;;5043644;28;20433;-94
2020/12/28 09:46:22;;;;;;;29.50;9.75;;;1.60;99.90;;;;;;5038998;28;20025;-94
2020/12/28 09:49:58;;;;;;;28.08;9.45;;;1.60;99.90;;;;;;5035568;28;20412;-95
2020/12/28 09:52:24;;;;;;;20.95;8.80;;;1.60;99.90;;;;;;5051724;28;20040;-95
2020/12/28 09:54:49;;;;;;;30.10;10.32;;;1.50;99.90;;;;;;5065127;28;20029;-95
2020/12/28 09:57:18;;;;;;;23.73;9.90;;;1.50;99.90;;;;;;5063869;28;20024;-95
2020/12/28 09:59:45;;;;;;;31.50;11.90;;;1.50;99.90;;;;;;5054742;28;20044;-94
2020/12/28 10:02:10;;;;;;;25.58;9.70;;;1.50;99.90;;;;;;5034907;28;20052;-96
2020/12/28 10:04:36;;;;;;;24.92;10.48;;;1.40;99.90;;;;;;5069621;28;20046;-93
2020/12/28 10:07:02;;;;;;;27.90;11.27;;;1.40;99.90;;;;;;5063713;28;20033;-94
2020/12/28 10:09:28;;;;;;;25.45;10.13;;;1.50;99.90;;;;;;5063590;28;20029;-95
2020/12/28 10:11:54;;;;;;;26.35;9.45;;;1.50;99.90;;;;;;5063907;28;20039;-94
2020/12/28 10:14:20;;;;;;;23.92;9.40;;;1.50;99.90;;;;;;5065161;28;20025;-93
2020/12/28 10:16:45;;;;;;;25.58;9.80;;;1.50;99.90;;;;;;5066750;28;20033;-96
2020/12/28 10:19:13;;;;;;;27.65;11.05;;;1.50;99.90;;;;;;5067532;28;20024;-95
2020/12/28 10:21:39;;;;;;;25.80;10.30;;;1.40;99.90;;;;;;5066594;28;20049;-93
2020/12/28 10:24:05;;;;;;;22.48;9.02;;;1.50;99.90;;;;;;5066303;28;20100;-95
2020/12/28 10:26:35;;;;;;;21.17;8.70;;;1.60;99.90;;;;;;5066106;28;20005;-95
2020/12/28 10:29:00;;;;;;;21.80;9.75;;;1.60;99.90;;;;;;5064783;28;20037;-95
2020/12/28 10:31:26;;;;;;;22.75;9.60;;;1.60;99.90;;;;;;5069147;28;20116;-95
2020/12/28 10:33:55;;;;;;;16.60;7.07;;;1.70;99.90;;;;;;5068170;28;20012;-93
2020/12/28 10:36:35;;;;;;;20.98;8.07;;;1.70;99.90;;;;;;5065225;28;20033;-95
2020/12/28 10:39:01;;;;;;;25.80;9.48;;;1.80;99.90;;;;;;5067731;28;20072;-92
2020/12/28 10:41:29;;;;;;;19.52;8.10;;;1.80;99.90;;;;;;5066017;28;20058;-94
2020/12/28 10:43:56;;;;;;;19.38;7.53;;;1.80;99.90;;;;;;5063061;28;20063;-93
2020/12/28 10:46:24;;;;;;;19.77;6.75;;;1.90;99.90;;;;;;5065428;28;20050;-96
2020/12/28 10:48:52;;;;;;;19.60;7.63;;;1.90;99.90;;;;;;5065210;28;20025;-94
2020/12/28 10:51:18;;;;;;;18.95;7.05;;;1.80;99.90;;;;;;5061337;28;20045;-96
2020/12/28 10:53:44;;;;;;;18.15;8.18;;;1.80;99.90;;;;;;5062008;28;20029;-95
2020/12/28 10:56:10;;;;;;;17.83;7.80;;;1.90;99.90;;;;;;5062371;28;20028;-95
2020/12/28 10:58:36;;;;;;;20.08;7.70;;;2.00;99.90;;;;;;5064746;28;20028;-95
2020/12/28 11:01:07;;;;;;;16.42;6.80;;;2.10;99.90;;;;;;5063313;28;20044;-94
2020/12/28 11:03:39;;;;;;;20.42;7.70;;;2.20;99.90;;;;;;5066367;28;20025;-94
2020/12/28 11:06:05;;;;;;;25.92;8.95;;;2.30;99.90;;;;;;5066079;28;20021;-94
2020/12/28 11:08:30;;;;;;;20.00;8.32;;;2.40;99.90;;;;;;5065561;28;20029;-94
2020/12/28 11:10:56;;;;;;;24.15;8.93;;;2.50;99.90;;;;;;5064136;28;20001;-90
2020/12/28 11:13:22;;;;;;;22.30;8.80;;;2.50;99.90;;;;;;5067580;28;20035;-93
2020/12/28 11:15:47;;;;;;;21.20;8.65;;;2.50;99.90;;;;;;5069370;28;20032;-92
2020/12/28 11:18:13;;;;;;;23.65;9.13;;;2.50;99.90;;;;;;5065971;28;20025;-95
2020/12/28 11:20:39;;;;;;;22.88;8.55;;;2.50;99.90;;;;;;5064509;28;20044;-91
2020/12/28 11:23:04;;;;;;;21.05;8.98;;;2.40;99.90;;;;;;5068338;28;20036;-92
2020/12/28 11:25:30;;;;;;;19.38;9.38;;;2.30;99.90;;;;;;5066589;28;20043;-92
2020/12/28 11:27:56;;;;;;;25.20;10.00;;;2.20;99.90;;;;;;5065103;28;20017;-93
2020/12/28 11:30:21;;;;;;;25.90;9.23;;;2.20;99.90;;;;;;5066991;28;20036;-91
2020/12/28 11:32:47;;;;;;;21.15;9.95;;;2.10;99.90;;;;;;5068995;28;20048;-92
2020/12/28 11:35:13;;;;;;;21.50;9.25;;;2.10;99.90;;;;;;5086737;28;20019;-92
2020/12/28 11:37:38;;;;;;;22.80;9.68;;;2.10;99.90;;;;;;5069350;28;20109;-92
2020/12/28 11:40:04;;;;;;;28.88;10.52;;;2.10;99.90;;;;;;5069835;28;20041;-92
2020/12/28 11:42:31;;;;;;;24.02;9.07;;;2.10;99.90;;;;;;5067441;28;20040;-93
2020/12/28 11:44:57;;;;;;;27.30;11.02;;;2.10;99.90;;;;;;5066431;28;20021;-95
2020/12/28 11:47:23;;;;;;;21.23;9.70;;;2.20;99.90;;;;;;5064787;28;20028;-94
2020/12/28 11:49:49;;;;;;;24.80;11.38;;;2.20;99.90;;;;;;5067168;28;20040;-93
2020/12/28 11:52:15;;;;;;;26.15;10.48;;;2.20;99.90;;;;;;5063639;28;20054;-95
2020/12/28 11:54:41;;;;;;;23.92;9.98;;;2.20;99.90;;;;;;5063844;28;20055;-95
2020/12/28 11:57:07;;;;;;;25.50;10.10;;;2.20;99.90;;;;;;5060792;28;20033;-91
2020/12/28 11:59:33;;;;;;;24.98;9.80;;;2.30;99.90;;;;;;5068503;28;20040;-94
2020/12/28 12:01:58;;;;;;;24.67;10.00;;;2.30;99.90;;;;;;5064915;28;20021;-93
2020/12/28 12:07:08;;;;;;;24.38;9.88;;;2.30;99.90;;;;;;5080951;28;20079;-92
2020/12/28 12:09:37;;;;;;;26.35;10.02;;;2.40;99.90;;;;;;5064485;28;20025;-95
2020/12/28 12:12:02;;;;;;;25.77;9.00;;;2.40;99.90;;;;;;5050569;28;20021;-95
2020/12/28 12:14:28;;;;;;;21.58;8.65;;;2.40;99.90;;;;;;5059205;28;20047;-95
2020/12/28 12:16:53;;;;;;;18.48;7.72;;;2.50;99.90;;;;;;5065548;28;20025;-94
2020/12/28 12:19:19;;;;;;;18.42;8.60;;;2.50;99.90;;;;;;5064203;28;20032;-96
2020/12/28 12:21:45;;;;;;;21.00;8.43;;;2.50;99.90;;;;;;5067402;28;20036;-95
2020/12/28 12:24:11;;;;;;;18.00;7.50;;;2.50;99.90;;;;;;5066330;28;20123;-95
2020/12/28 12:26:36;;;;;;;18.05;8.45;;;2.50;99.90;;;;;;5067462;28;20055;-93
2020/12/28 12:29:04;;;;;;;19.10;8.25;;;2.50;99.90;;;;;;5070367;28;20060;-93
2020/12/28 12:31:29;;;;;;;19.63;7.97;;;2.50;99.90;;;;;;5070366;28;20029;-95
2020/12/28 12:33:55;;;;;;;18.42;8.60;;;2.40;99.90;;;;;;5069417;28;20017;-93
2020/12/28 12:36:21;;;;;;;21.38;9.15;;;2.40;99.90;;;;;;5071894;28;20041;-93
2020/12/28 12:38:46;;;;;;;22.05;9.27;;;2.40;99.90;;;;;;5068644;28;20041;-94
2020/12/28 12:41:14;;;;;;;27.13;11.80;;;2.40;99.90;;;;;;5068769;28;20215;-92
2020/12/28 12:43:40;;;;;;;26.60;11.32;;;2.40;99.90;;;;;;5068222;28;20020;-94
2020/12/28 12:46:08;;;;;;;29.83;12.75;;;2.40;99.90;;;;;;5068383;28;20113;-92
2020/12/28 12:48:33;;;;;;;29.08;12.18;;;2.40;99.90;;;;;;5067899;28;20083;-94
2020/12/28 12:50:59;;;;;;;36.20;13.88;;;2.30;99.90;;;;;;5067237;28;20032;-93
2020/12/28 12:53:24;;;;;;;36.78;13.95;;;2.30;99.90;;;;;;5065035;28;20013;-93
2020/12/28 12:55:50;;;;;;;31.95;12.48;;;2.30;99.90;;;;;;5066251;28;20020;-94
2020/12/28 12:58:16;;;;;;;34.47;13.63;;;2.30;99.90;;;;;;5067456;28;20039;-93
2020/12/28 13:00:42;;;;;;;31.27;11.40;;;2.30;99.90;;;;;;5068704;28;20044;-94
2020/12/28 13:03:07;;;;;;;32.58;11.27;;;2.30;99.90;;;;;;5062773;28;20036;-92
2020/12/28 13:05:33;;;;;;;28.40;10.30;;;2.30;99.90;;;;;;5061046;28;20116;-94
2020/12/28 13:07:59;;;;;;;27.00;9.73;;;2.30;99.90;;;;;;5076466;28;20029;-92
2020/12/28 13:10:24;;;;;;;25.27;11.40;;;2.30;99.90;;;;;;5056216;28;20088;-94
2020/12/28 13:12:50;;;;;;;27.55;10.75;;;2.30;99.90;;;;;;5057022;28;20048;-96
2020/12/28 13:15:16;;;;;;;23.63;9.68;;;2.40;99.90;;;;;;5061516;28;20028;-93